sensor_id;sensor_type;location;lat;lon;timestamp;pressure;altitude;pressure_sealevel;temperature;humidity
39177;BME280;24904;52.208;21.192;2023-07-31T00:04:11;99880.48;;;18.51;80.42
39177;BME280;24904;52.208;21.192;2023-07-31T00:09:14;99872.59;;;18.52;80.44
39177;BME280;24904;52.208;21.192;2023-07-31T00:14:17;99870.84;;;18.49;80.03
39177;BME280;24904;52.208;21.192;2023-07-31T00:19:20;99870.63;;;18.49;79.84
39177;BME280;24904;52.208;21.192;2023-07-31T00:24:24;99873.12;;;18.45;79.62
39177;BME280;24904;52.208;21.192;2023-07-31T00:29:27;99874.23;;;18.45;79.42
39177;BME280;24904;52.208;21.192;2023-07-31T00:34:30;99877.47;;;18.39;79.24
39177;BME280;24904;52.208;21.192;2023-07-31T00:39:34;99876.42;;;18.40;79.02
39177;BME280;24904;52.208;21.192;2023-07-31T00:44:37;99878.55;;;18.40;78.69
39177;BME280;24904;52.208;21.192;2023-07-31T00:49:41;99883.47;;;18.38;78.46
39177;BME280;24904;52.208;21.192;2023-07-31T00:54:44;99873.71;;;18.33;78.44
39177;BME280;24904;52.208;21.192;2023-07-31T00:59:47;99873.56;;;18.24;78.49
39177;BME280;24904;52.208;21.192;2023-07-31T01:04:51;99874.68;;;18.21;78.57
39177;BME280;24904;52.208;21.192;2023-07-31T01:10:00;99875.71;;;18.23;78.55
39177;BME280;24904;52.208;21.192;2023-07-31T01:23:46;99876.10;;;18.24;78.25
39177;BME280;24904;52.208;21.192;2023-07-31T01:28:55;99875.47;;;18.24;78.25
39177;BME280;24904;52.208;21.192;2023-07-31T01:33:59;99883.63;;;18.22;78.09
39177;BME280;24904;52.208;21.192;2023-07-31T01:39:02;99879.94;;;18.17;78.15
39177;BME280;24904;52.208;21.192;2023-07-31T01:44:06;99879.17;;;18.13;78.26
39177;BME280;24904;52.208;21.192;2023-07-31T01:49:08;99879.40;;;18.13;78.17
39177;BME280;24904;52.208;21.192;2023-07-31T01:54:10;99887.05;;;18.12;78.05
39177;BME280;24904;52.208;21.192;2023-07-31T01:59:13;99885.83;;;18.08;77.99
39177;BME280;24904;52.208;21.192;2023-07-31T02:04:15;99889.46;;;18.06;78.07
39177;BME280;24904;52.208;21.192;2023-07-31T02:09:18;99893.65;;;18.03;78.08
39177;BME280;24904;52.208;21.192;2023-07-31T02:14:20;99896.02;;;17.95;78.04
39177;BME280;24904;52.208;21.192;2023-07-31T02:19:22;99896.55;;;17.90;78.24
39177;BME280;24904;52.208;21.192;2023-07-31T02:24:24;99901.27;;;17.85;78.35
39177;BME280;24904;52.208;21.192;2023-07-31T02:29:26;99901.16;;;17.78;78.52
39177;BME280;24904;52.208;21.192;2023-07-31T02:34:28;99902.91;;;17.71;78.59
39177;BME280;24904;52.208;21.192;2023-07-31T02:39:30;99914.55;;;17.65;78.94
39177;BME280;24904;52.208;21.192;2023-07-31T02:44:32;99918.86;;;17.61;79.10
39177;BME280;24904;52.208;21.192;2023-07-31T02:49:34;99915.89;;;17.55;79.37
39177;BME280;24904;52.208;21.192;2023-07-31T02:54:36;99923.95;;;17.53;79.45
39177;BME280;24904;52.208;21.192;2023-07-31T02:59:38;99930.98;;;17.54;79.65
39177;BME280;24904;52.208;21.192;2023-07-31T03:04:40;99917.52;;;17.54;79.82
39177;BME280;24904;52.208;21.192;2023-07-31T03:09:42;99919.05;;;17.53;80.03
39177;BME280;24904;52.208;21.192;2023-07-31T03:14:44;99923.14;;;17.57;80.05
39177;BME280;24904;52.208;21.192;2023-07-31T03:19:46;99922.67;;;17.60;80.08
39177;BME280;24904;52.208;21.192;2023-07-31T03:24:48;99915.64;;;17.63;80.39
39177;BME280;24904;52.208;21.192;2023-07-31T03:29:50;99916.11;;;17.63;80.36
39177;BME280;24904;52.208;21.192;2023-07-31T03:34:53;99917.12;;;17.67;80.50
39177;BME280;24904;52.208;21.192;2023-07-31T03:39:55;99918.42;;;17.69;80.62
39177;BME280;24904;52.208;21.192;2023-07-31T03:44:57;99923.91;;;17.71;80.60
39177;BME280;24904;52.208;21.192;2023-07-31T03:49:58;99928.30;;;17.77;80.38
39177;BME280;24904;52.208;21.192;2023-07-31T03:55:01;99931.42;;;17.82;80.33
39177;BME280;24904;52.208;21.192;2023-07-31T04:00:03;99930.58;;;17.87;80.12
39177;BME280;24904;52.208;21.192;2023-07-31T04:05:13;99936.18;;;17.92;79.74
39177;BME280;24904;52.208;21.192;2023-07-31T04:10:15;99938.48;;;17.95;79.46
39177;BME280;24904;52.208;21.192;2023-07-31T04:16:27;99945.45;;;18.01;79.02
39177;BME280;24904;52.208;21.192;2023-07-31T04:21:32;99948.02;;;18.00;78.66
39177;BME280;24904;52.208;21.192;2023-07-31T04:30:18;99961.21;;;18.09;78.07
39177;BME280;24904;52.208;21.192;2023-07-31T04:35:23;99959.10;;;18.07;77.58
39177;BME280;24904;52.208;21.192;2023-07-31T04:40:28;99964.98;;;18.10;77.44
39177;BME280;24904;52.208;21.192;2023-07-31T04:45:33;99972.23;;;18.10;77.41
39177;BME280;24904;52.208;21.192;2023-07-31T04:50:38;99985.77;;;18.07;77.06
39177;BME280;24904;52.208;21.192;2023-07-31T04:55:43;99980.31;;;18.07;76.76
39177;BME280;24904;52.208;21.192;2023-07-31T05:00:48;99979.08;;;18.06;76.56
39177;BME280;24904;52.208;21.192;2023-07-31T05:05:53;99978.97;;;18.04;76.50
39177;BME280;24904;52.208;21.192;2023-07-31T05:10:58;99979.55;;;18.06;76.44
39177;BME280;24904;52.208;21.192;2023-07-31T05:16:03;99974.45;;;18.06;76.37
39177;BME280;24904;52.208;21.192;2023-07-31T05:21:08;99982.16;;;18.09;76.28
39177;BME280;24904;52.208;21.192;2023-07-31T05:26:13;99983.05;;;18.11;76.20
39177;BME280;24904;52.208;21.192;2023-07-31T05:31:18;99982.64;;;18.15;76.15
39177;BME280;24904;52.208;21.192;2023-07-31T05:36:24;99978.93;;;18.18;76.09
39177;BME280;24904;52.208;21.192;2023-07-31T05:41:29;99979.83;;;18.23;76.22
39177;BME280;24904;52.208;21.192;2023-07-31T05:46:34;99988.21;;;18.26;75.97
39177;BME280;24904;52.208;21.192;2023-07-31T05:51:39;99996.96;;;18.32;75.91
39177;BME280;24904;52.208;21.192;2023-07-31T05:56:44;100001.95;;;18.36;75.82
39177;BME280;24904;52.208;21.192;2023-07-31T06:01:49;100007.23;;;18.40;75.72
39177;BME280;24904;52.208;21.192;2023-07-31T06:06:54;100011.11;;;18.44;75.62
39177;BME280;24904;52.208;21.192;2023-07-31T06:12:00;100014.84;;;18.47;75.61
39177;BME280;24904;52.208;21.192;2023-07-31T06:17:05;100019.92;;;18.49;75.46
39177;BME280;24904;52.208;21.192;2023-07-31T06:22:10;100021.19;;;18.53;75.48
39177;BME280;24904;52.208;21.192;2023-07-31T06:27:15;100025.78;;;18.56;75.34
39177;BME280;24904;52.208;21.192;2023-07-31T06:32:20;100029.20;;;18.56;75.61
39177;BME280;24904;52.208;21.192;2023-07-31T06:37:26;100028.18;;;18.56;75.60
39177;BME280;24904;52.208;21.192;2023-07-31T06:42:31;100026.64;;;18.54;75.77
39177;BME280;24904;52.208;21.192;2023-07-31T06:47:36;100033.59;;;18.55;76.04
39177;BME280;24904;52.208;21.192;2023-07-31T06:52:41;100035.52;;;18.57;76.13
39177;BME280;24904;52.208;21.192;2023-07-31T06:57:47;100035.80;;;18.55;75.77
39177;BME280;24904;52.208;21.192;2023-07-31T07:02:52;100040.16;;;18.53;75.58
39177;BME280;24904;52.208;21.192;2023-07-31T07:07:57;100041.39;;;18.49;75.50
39177;BME280;24904;52.208;21.192;2023-07-31T07:13:02;100049.48;;;18.44;75.35
39177;BME280;24904;52.208;21.192;2023-07-31T07:18:07;100045.64;;;18.41;75.24
39177;BME280;24904;52.208;21.192;2023-07-31T07:23:14;100041.86;;;18.40;75.26
39177;BME280;24904;52.208;21.192;2023-07-31T07:28:19;100044.20;;;18.42;75.17
39177;BME280;24904;52.208;21.192;2023-07-31T07:33:25;100053.30;;;18.46;75.36
39177;BME280;24904;52.208;21.192;2023-07-31T07:38:30;100052.86;;;18.57;75.67
39177;BME280;24904;52.208;21.192;2023-07-31T07:43:35;100049.50;;;18.64;75.38
39177;BME280;24904;52.208;21.192;2023-07-31T07:48:40;100048.70;;;18.82;75.43
39177;BME280;24904;52.208;21.192;2023-07-31T07:53:45;100047.55;;;19.06;75.59
39177;BME280;24904;52.208;21.192;2023-07-31T07:58:51;100047.30;;;19.31;75.28
39177;BME280;24904;52.208;21.192;2023-07-31T08:03:56;100047.86;;;19.41;74.00
39177;BME280;24904;52.208;21.192;2023-07-31T08:09:01;100050.23;;;19.49;73.93
39177;BME280;24904;52.208;21.192;2023-07-31T08:14:09;100048.60;;;19.60;73.46
39177;BME280;24904;52.208;21.192;2023-07-31T08:19:14;100045.23;;;19.76;73.29
39177;BME280;24904;52.208;21.192;2023-07-31T08:24:19;100039.48;;;19.93;72.07
39177;BME280;24904;52.208;21.192;2023-07-31T08:29:24;100040.26;;;20.09;72.00
39177;BME280;24904;52.208;21.192;2023-07-31T08:34:29;100040.57;;;20.28;71.58
39177;BME280;24904;52.208;21.192;2023-07-31T08:39:34;100042.79;;;20.48;70.93
39177;BME280;24904;52.208;21.192;2023-07-31T08:44:44;100040.83;;;20.65;70.00
39177;BME280;24904;52.208;21.192;2023-07-31T08:49:50;100033.79;;;20.90;69.64
39177;BME280;24904;52.208;21.192;2023-07-31T08:54:56;100028.84;;;21.20;68.47
39177;BME280;24904;52.208;21.192;2023-07-31T09:00:01;100029.66;;;21.43;67.43
39177;BME280;24904;52.208;21.192;2023-07-31T09:05:07;100030.08;;;21.63;66.54
39177;BME280;24904;52.208;21.192;2023-07-31T09:10:14;100036.63;;;21.79;64.29
39177;BME280;24904;52.208;21.192;2023-07-31T09:15:20;100035.83;;;21.89;63.91
39177;BME280;24904;52.208;21.192;2023-07-31T09:20:25;100035.16;;;21.99;63.75
39177;BME280;24904;52.208;21.192;2023-07-31T09:25:30;100034.05;;;22.11;63.06
39177;BME280;24904;52.208;21.192;2023-07-31T09:30:46;100028.81;;;22.18;62.79
39177;BME280;24904;52.208;21.192;2023-07-31T09:35:52;100027.92;;;22.32;61.94
39177;BME280;24904;52.208;21.192;2023-07-31T09:41:00;100026.70;;;22.32;60.52
39177;BME280;24904;52.208;21.192;2023-07-31T09:46:05;100038.33;;;22.14;59.49
39177;BME280;24904;52.208;21.192;2023-07-31T09:51:17;100036.69;;;22.05;60.28
39177;BME280;24904;52.208;21.192;2023-07-31T09:56:31;100033.92;;;22.14;61.08
39177;BME280;24904;52.208;21.192;2023-07-31T10:01:37;100032.17;;;22.35;59.14
39177;BME280;24904;52.208;21.192;2023-07-31T10:06:45;100032.22;;;22.41;58.72
39177;BME280;24904;52.208;21.192;2023-07-31T10:11:55;100030.92;;;22.55;59.04
39177;BME280;24904;52.208;21.192;2023-07-31T10:17:04;100027.34;;;22.60;58.36
39177;BME280;24904;52.208;21.192;2023-07-31T10:22:10;100028.83;;;22.58;58.21
39177;BME280;24904;52.208;21.192;2023-07-31T10:27:16;100027.38;;;22.54;57.59
39177;BME280;24904;52.208;21.192;2023-07-31T10:32:22;100020.20;;;22.57;57.59
39177;BME280;24904;52.208;21.192;2023-07-31T10:37:29;100025.22;;;22.66;57.56
39177;BME280;24904;52.208;21.192;2023-07-31T10:42:36;100025.69;;;22.77;57.19
39177;BME280;24904;52.208;21.192;2023-07-31T10:47:44;100024.95;;;22.91;55.38
39177;BME280;24904;52.208;21.192;2023-07-31T10:52:50;100024.16;;;22.81;53.71
39177;BME280;24904;52.208;21.192;2023-07-31T10:57:57;100020.90;;;22.83;54.20
39177;BME280;24904;52.208;21.192;2023-07-31T11:03:04;100014.66;;;23.02;54.75
39177;BME280;24904;52.208;21.192;2023-07-31T11:08:14;100009.81;;;23.17;54.13
39177;BME280;24904;52.208;21.192;2023-07-31T11:13:19;100013.89;;;23.34;53.78
39177;BME280;24904;52.208;21.192;2023-07-31T11:18:25;100012.02;;;23.44;52.18
39177;BME280;24904;52.208;21.192;2023-07-31T11:23:30;100010.11;;;23.45;52.22
39177;BME280;24904;52.208;21.192;2023-07-31T11:28:36;100011.31;;;23.46;51.16
39177;BME280;24904;52.208;21.192;2023-07-31T11:33:42;100007.19;;;23.44;50.99
39177;BME280;24904;52.208;21.192;2023-07-31T11:38:47;100004.11;;;23.43;51.06
39177;BME280;24904;52.208;21.192;2023-07-31T11:44:00;100007.10;;;23.35;50.55
39177;BME280;24904;52.208;21.192;2023-07-31T11:49:07;100009.91;;;23.24;49.29
39177;BME280;24904;52.208;21.192;2023-07-31T11:54:12;100005.63;;;23.19;49.04
39177;BME280;24904;52.208;21.192;2023-07-31T11:59:55;99995.27;;;23.19;49.19
39177;BME280;24904;52.208;21.192;2023-07-31T12:05:00;99993.66;;;23.13;48.82
39177;BME280;24904;52.208;21.192;2023-07-31T12:10:05;99987.70;;;23.11;49.12
39177;BME280;24904;52.208;21.192;2023-07-31T12:15:15;99990.88;;;23.04;48.99
39177;BME280;24904;52.208;21.192;2023-07-31T12:20:21;99989.62;;;23.01;49.02
39177;BME280;24904;52.208;21.192;2023-07-31T12:25:24;99989.28;;;23.01;49.33
39177;BME280;24904;52.208;21.192;2023-07-31T12:30:33;99978.40;;;22.99;48.89
39177;BME280;24904;52.208;21.192;2023-07-31T12:35:38;99977.50;;;22.91;48.87
39177;BME280;24904;52.208;21.192;2023-07-31T12:40:43;99974.59;;;22.88;48.33
39177;BME280;24904;52.208;21.192;2023-07-31T12:45:46;99969.64;;;22.88;48.32
39177;BME280;24904;52.208;21.192;2023-07-31T12:50:49;99966.92;;;22.85;48.38
39177;BME280;24904;52.208;21.192;2023-07-31T12:55:52;99964.70;;;22.86;48.28
39177;BME280;24904;52.208;21.192;2023-07-31T13:00:55;99957.79;;;22.81;47.71
39177;BME280;24904;52.208;21.192;2023-07-31T13:05:58;99953.14;;;22.78;47.86
39177;BME280;24904;52.208;21.192;2023-07-31T13:11:01;99951.86;;;22.77;47.62
39177;BME280;24904;52.208;21.192;2023-07-31T13:16:05;99944.58;;;22.74;46.99
39177;BME280;24904;52.208;21.192;2023-07-31T13:21:08;99941.67;;;22.74;48.03
39177;BME280;24904;52.208;21.192;2023-07-31T13:26:11;99937.75;;;22.79;47.38
39177;BME280;24904;52.208;21.192;2023-07-31T13:31:14;99931.15;;;22.81;46.54
39177;BME280;24904;52.208;21.192;2023-07-31T13:36:17;99931.41;;;22.80;47.02
39177;BME280;24904;52.208;21.192;2023-07-31T13:41:20;99927.30;;;22.79;46.96
39177;BME280;24904;52.208;21.192;2023-07-31T13:46:23;99920.75;;;22.81;47.13
39177;BME280;24904;52.208;21.192;2023-07-31T13:51:27;99921.27;;;22.85;46.78
39177;BME280;24904;52.208;21.192;2023-07-31T13:56:30;99919.23;;;22.87;46.70
39177;BME280;24904;52.208;21.192;2023-07-31T14:01:33;99918.52;;;22.90;46.51
39177;BME280;24904;52.208;21.192;2023-07-31T14:06:36;99913.70;;;22.94;46.43
39177;BME280;24904;52.208;21.192;2023-07-31T14:11:40;99905.83;;;22.93;46.17
39177;BME280;24904;52.208;21.192;2023-07-31T14:16:42;99899.16;;;22.93;46.58
39177;BME280;24904;52.208;21.192;2023-07-31T14:21:46;99903.80;;;22.95;46.71
39177;BME280;24904;52.208;21.192;2023-07-31T14:27:09;99895.70;;;22.90;46.79
39177;BME280;24904;52.208;21.192;2023-07-31T14:32:14;99897.96;;;22.85;47.47
39177;BME280;24904;52.208;21.192;2023-07-31T14:37:19;99899.79;;;22.81;47.43
39177;BME280;24904;52.208;21.192;2023-07-31T14:42:25;99894.42;;;22.79;47.57
39177;BME280;24904;52.208;21.192;2023-07-31T14:47:30;99889.33;;;22.79;47.89
39177;BME280;24904;52.208;21.192;2023-07-31T14:52:35;99884.35;;;22.79;47.77
39177;BME280;24904;52.208;21.192;2023-07-31T14:57:58;99882.95;;;22.76;47.54
39177;BME280;24904;52.208;21.192;2023-07-31T15:03:03;99880.05;;;22.72;46.82
39177;BME280;24904;52.208;21.192;2023-07-31T15:08:08;99879.62;;;22.73;47.93
39177;BME280;24904;52.208;21.192;2023-07-31T15:13:13;99874.10;;;22.74;47.71
39177;BME280;24904;52.208;21.192;2023-07-31T15:18:18;99871.63;;;22.73;46.83
39177;BME280;24904;52.208;21.192;2023-07-31T15:23:23;99869.73;;;22.70;46.99
39177;BME280;24904;52.208;21.192;2023-07-31T15:28:30;99865.92;;;22.66;47.50
39177;BME280;24904;52.208;21.192;2023-07-31T15:33:38;99862.94;;;22.63;47.31
39177;BME280;24904;52.208;21.192;2023-07-31T15:38:43;99858.22;;;22.62;47.13
39177;BME280;24904;52.208;21.192;2023-07-31T15:43:48;99852.08;;;22.60;47.60
39177;BME280;24904;52.208;21.192;2023-07-31T15:48:53;99849.00;;;22.59;47.13
39177;BME280;24904;52.208;21.192;2023-07-31T15:53:58;99845.23;;;22.61;47.35
39177;BME280;24904;52.208;21.192;2023-07-31T15:59:03;99840.33;;;22.65;47.85
39177;BME280;24904;52.208;21.192;2023-07-31T16:04:08;99841.95;;;22.66;47.74
39177;BME280;24904;52.208;21.192;2023-07-31T16:09:13;99840.60;;;22.66;47.46
39177;BME280;24904;52.208;21.192;2023-07-31T16:14:18;99836.94;;;22.64;48.12
39177;BME280;24904;52.208;21.192;2023-07-31T16:19:23;99833.11;;;22.59;47.98
39177;BME280;24904;52.208;21.192;2023-07-31T16:24:28;99830.02;;;22.53;48.33
39177;BME280;24904;52.208;21.192;2023-07-31T16:29:33;99829.81;;;22.46;49.41
39177;BME280;24904;52.208;21.192;2023-07-31T16:34:38;99833.54;;;22.39;50.09
39177;BME280;24904;52.208;21.192;2023-07-31T16:39:43;99827.55;;;22.35;49.92
39177;BME280;24904;52.208;21.192;2023-07-31T16:44:50;99822.60;;;22.29;50.62
39177;BME280;24904;52.208;21.192;2023-07-31T16:49:55;99823.02;;;22.17;51.02
39177;BME280;24904;52.208;21.192;2023-07-31T16:55:00;99820.64;;;22.08;51.09
39177;BME280;24904;52.208;21.192;2023-07-31T17:00:07;99819.75;;;22.01;51.33
39177;BME280;24904;52.208;21.192;2023-07-31T17:05:13;99821.02;;;21.91;51.27
39177;BME280;24904;52.208;21.192;2023-07-31T17:10:18;99824.11;;;21.85;51.51
39177;BME280;24904;52.208;21.192;2023-07-31T17:15:23;99829.19;;;21.76;51.44
39177;BME280;24904;52.208;21.192;2023-07-31T17:20:28;99830.10;;;21.69;52.06
39177;BME280;24904;52.208;21.192;2023-07-31T17:25:35;99838.48;;;21.59;53.31
39177;BME280;24904;52.208;21.192;2023-07-31T17:30:42;99842.16;;;21.52;53.98
39177;BME280;24904;52.208;21.192;2023-07-31T17:35:47;99841.31;;;21.45;54.91
39177;BME280;24904;52.208;21.192;2023-07-31T17:44:54;99844.80;;;21.38;55.68
39177;BME280;24904;52.208;21.192;2023-07-31T17:49:57;99848.30;;;21.31;57.20
39177;BME280;24904;52.208;21.192;2023-07-31T17:55:00;99850.95;;;21.26;57.55
39177;BME280;24904;52.208;21.192;2023-07-31T18:00:03;99854.41;;;21.23;58.19
39177;BME280;24904;52.208;21.192;2023-07-31T18:05:09;99858.90;;;21.16;58.32
39177;BME280;24904;52.208;21.192;2023-07-31T18:10:12;99865.81;;;21.09;58.77
39177;BME280;24904;52.208;21.192;2023-07-31T18:15:15;99873.12;;;21.00;59.42
39177;BME280;24904;52.208;21.192;2023-07-31T18:20:18;99887.87;;;20.96;58.08
39177;BME280;24904;52.208;21.192;2023-07-31T18:25:21;99892.25;;;20.96;57.37
39177;BME280;24904;52.208;21.192;2023-07-31T18:30:24;99888.38;;;20.95;57.52
39177;BME280;24904;52.208;21.192;2023-07-31T18:35:27;99885.89;;;20.94;57.50
39177;BME280;24904;52.208;21.192;2023-07-31T18:40:33;99891.62;;;20.92;57.73
39177;BME280;24904;52.208;21.192;2023-07-31T18:45:36;99886.23;;;20.85;58.10
39177;BME280;24904;52.208;21.192;2023-07-31T18:50:41;99885.70;;;20.80;58.58
39177;BME280;24904;52.208;21.192;2023-07-31T18:55:45;99887.02;;;20.73;58.49
39177;BME280;24904;52.208;21.192;2023-07-31T19:00:48;99886.13;;;20.67;59.13
39177;BME280;24904;52.208;21.192;2023-07-31T19:05:51;99888.02;;;20.57;58.79
39177;BME280;24904;52.208;21.192;2023-07-31T19:10:54;99892.38;;;20.49;58.90
39177;BME280;24904;52.208;21.192;2023-07-31T19:15:57;99891.73;;;20.38;59.25
39177;BME280;24904;52.208;21.192;2023-07-31T19:21:00;99885.66;;;20.18;59.96
39177;BME280;24904;52.208;21.192;2023-07-31T19:26:03;99884.83;;;20.03;61.00
39177;BME280;24904;52.208;21.192;2023-07-31T19:31:06;99889.65;;;19.87;61.45
39177;BME280;24904;52.208;21.192;2023-07-31T19:36:09;99889.41;;;19.77;62.32
39177;BME280;24904;52.208;21.192;2023-07-31T19:41:13;99887.18;;;19.64;62.84
39177;BME280;24904;52.208;21.192;2023-07-31T19:46:17;99887.54;;;19.54;63.50
39177;BME280;24904;52.208;21.192;2023-07-31T19:51:20;99885.15;;;19.47;63.86
39177;BME280;24904;52.208;21.192;2023-07-31T19:56:23;99884.95;;;19.37;63.93
39177;BME280;24904;52.208;21.192;2023-07-31T20:01:26;99891.67;;;19.27;64.45
39177;BME280;24904;52.208;21.192;2023-07-31T20:06:29;99889.89;;;19.23;65.13
39177;BME280;24904;52.208;21.192;2023-07-31T20:11:32;99887.13;;;19.21;65.43
39177;BME280;24904;52.208;21.192;2023-07-31T20:16:35;99883.64;;;19.15;65.38
39177;BME280;24904;52.208;21.192;2023-07-31T20:21:42;99882.34;;;19.08;65.11
39177;BME280;24904;52.208;21.192;2023-07-31T20:26:45;99875.02;;;19.04;65.45
39177;BME280;24904;52.208;21.192;2023-07-31T20:31:48;99869.20;;;19.02;65.61
39177;BME280;24904;52.208;21.192;2023-07-31T20:36:51;99863.20;;;19.00;65.86
39177;BME280;24904;52.208;21.192;2023-07-31T20:41:54;99849.31;;;18.99;66.16
39177;BME280;24904;52.208;21.192;2023-07-31T20:46:57;99849.21;;;18.97;66.25
39177;BME280;24904;52.208;21.192;2023-07-31T20:52:00;99841.23;;;18.96;66.58
39177;BME280;24904;52.208;21.192;2023-07-31T20:57:03;99828.09;;;18.97;67.01
39177;BME280;24904;52.208;21.192;2023-07-31T21:02:08;99817.34;;;19.00;67.26
39177;BME280;24904;52.208;21.192;2023-07-31T21:07:11;99810.42;;;19.05;67.47
39177;BME280;24904;52.208;21.192;2023-07-31T21:12:17;99804.46;;;19.07;67.46
39177;BME280;24904;52.208;21.192;2023-07-31T21:17:20;99799.88;;;19.09;67.50
39177;BME280;24904;52.208;21.192;2023-07-31T21:22:23;99795.42;;;19.09;67.58
39177;BME280;24904;52.208;21.192;2023-07-31T21:27:27;99795.64;;;19.12;67.60
39177;BME280;24904;52.208;21.192;2023-07-31T21:32:31;99794.70;;;19.14;67.46
39177;BME280;24904;52.208;21.192;2023-07-31T21:37:34;99799.68;;;19.15;67.20
39177;BME280;24904;52.208;21.192;2023-07-31T21:42:38;99792.85;;;19.15;66.83
39177;BME280;24904;52.208;21.192;2023-07-31T21:47:42;99784.67;;;19.14;66.57
39177;BME280;24904;52.208;21.192;2023-07-31T21:52:45;99783.52;;;19.12;66.75
39177;BME280;24904;52.208;21.192;2023-07-31T21:57:48;99777.39;;;19.11;66.78
39177;BME280;24904;52.208;21.192;2023-07-31T22:02:52;99771.92;;;19.08;66.92
39177;BME280;24904;52.208;21.192;2023-07-31T22:07:56;99769.32;;;19.05;66.79
39177;BME280;24904;52.208;21.192;2023-07-31T22:12:59;99759.15;;;18.99;66.91
39177;BME280;24904;52.208;21.192;2023-07-31T22:18:02;99751.48;;;18.94;67.08
39177;BME280;24904;52.208;21.192;2023-07-31T22:23:05;99750.69;;;18.87;66.97
39177;BME280;24904;52.208;21.192;2023-07-31T22:28:08;99748.06;;;18.82;67.07
39177;BME280;24904;52.208;21.192;2023-07-31T22:33:11;99745.58;;;18.78;66.94
39177;BME280;24904;52.208;21.192;2023-07-31T22:38:14;99742.67;;;18.74;66.94
39177;BME280;24904;52.208;21.192;2023-07-31T22:43:17;99740.59;;;18.73;67.03
39177;BME280;24904;52.208;21.192;2023-07-31T22:48:20;99741.14;;;18.73;67.06
39177;BME280;24904;52.208;21.192;2023-07-31T22:53:23;99739.98;;;18.72;67.22
39177;BME280;24904;52.208;21.192;2023-07-31T22:58:26;99739.99;;;18.71;67.24
39177;BME280;24904;52.208;21.192;2023-07-31T23:03:29;99735.29;;;18.71;67.25
39177;BME280;24904;52.208;21.192;2023-07-31T23:08:32;99735.59;;;18.72;67.45
39177;BME280;24904;52.208;21.192;2023-07-31T23:13:35;99731.30;;;18.72;67.51
39177;BME280;24904;52.208;21.192;2023-07-31T23:18:39;99729.06;;;18.72;67.51
39177;BME280;24904;52.208;21.192;2023-07-31T23:23:43;99722.96;;;18.72;67.56
39177;BME280;24904;52.208;21.192;2023-07-31T23:28:46;99719.95;;;18.72;67.57
39177;BME280;24904;52.208;21.192;2023-07-31T23:33:49;99723.65;;;18.73;67.65
39177;BME280;24904;52.208;21.192;2023-07-31T23:38:52;99727.08;;;18.73;67.60
39177;BME280;24904;52.208;21.192;2023-07-31T23:43:55;99724.10;;;18.70;67.65
39177;BME280;24904;52.208;21.192;2023-07-31T23:49:01;99720.63;;;18.70;67.48
39177;BME280;24904;52.208;21.192;2023-07-31T23:54:04;99717.88;;;18.69;67.46
39177;BME280;24904;52.208;21.192;2023-07-31T23:59:08;99716.27;;;18.69;67.51
